createdAt,value
2023-05-04T00:00:55.796Z,9.64
2023-05-04T00:01:58.066Z,9.61
2023-05-04T00:03:00.803Z,9.63
2023-05-04T00:04:03.808Z,9.61
2023-05-04T00:05:07.269Z,9.62
2023-05-04T00:06:09.701Z,9.59
2023-05-04T00:07:12.385Z,9.49
2023-05-04T00:08:14.614Z,9.51
2023-05-04T00:09:16.978Z,9.45
2023-05-04T00:10:19.402Z,9.43
2023-05-04T00:11:22.190Z,9.47
2023-05-04T00:12:24.664Z,9.45
2023-05-04T00:13:26.896Z,9.37
2023-05-04T00:14:29.316Z,9.17
2023-05-04T00:15:31.552Z,9.14
2023-05-04T00:16:36.109Z,8.98
2023-05-04T00:17:39.978Z,8.94
2023-05-04T00:18:42.284Z,8.89
2023-05-04T00:19:46.061Z,8.81
2023-05-04T00:20:48.649Z,8.80
2023-05-04T00:21:50.838Z,8.78
2023-05-04T00:22:53.194Z,8.90
2023-05-04T00:23:55.376Z,9.02
2023-05-04T00:24:57.583Z,9.03
2023-05-04T00:26:00.693Z,9.06
2023-05-04T00:27:03.015Z,9.13
2023-05-04T00:28:05.457Z,9.25
2023-05-04T00:29:08.222Z,9.41
2023-05-04T00:30:11.253Z,9.54
2023-05-04T00:31:15.216Z,9.64
2023-05-04T00:32:17.498Z,9.63
2023-05-04T00:33:19.705Z,9.66
2023-05-04T00:34:21.910Z,9.40
2023-05-04T00:35:25.295Z,9.40
2023-05-04T00:36:27.745Z,9.20
2023-05-04T00:37:29.918Z,9.32
2023-05-04T00:38:47.005Z,9.33
2023-05-04T00:39:49.200Z,9.35
2023-05-04T00:40:51.742Z,9.45
2023-05-04T00:41:53.995Z,9.29
2023-05-04T00:42:56.388Z,9.27
2023-05-04T00:43:59.903Z,9.27
2023-05-04T00:45:02.276Z,9.26
2023-05-04T00:46:04.586Z,9.36
2023-05-04T00:47:08.337Z,9.45
2023-05-04T00:48:10.890Z,9.52
2023-05-04T00:49:13.341Z,9.55
2023-05-04T00:50:15.769Z,9.59
2023-05-04T00:51:20.822Z,9.63
2023-05-04T00:52:24.502Z,9.61
2023-05-04T00:53:27.248Z,9.43
2023-05-04T00:54:29.923Z,9.24
2023-05-04T00:55:32.700Z,9.17
2023-05-04T00:56:41.100Z,9.18
2023-05-04T00:57:43.804Z,9.18
2023-05-04T00:58:46.112Z,9.13
2023-05-04T00:59:48.499Z,9.10
2023-05-04T01:00:51.650Z,9.15
2023-05-04T01:01:53.840Z,9.12
2023-05-04T01:02:56.273Z,9.15
2023-05-04T01:03:58.917Z,9.09
2023-05-04T01:05:02.960Z,9.02
2023-05-04T01:06:59.537Z,9.04
2023-05-04T01:08:06.155Z,9.07
2023-05-04T01:09:30.307Z,9.06
2023-05-04T01:10:44.791Z,9.08
2023-05-04T01:12:07.315Z,9.01
2023-05-04T01:13:14.257Z,8.98
2023-05-04T01:14:21.907Z,8.87
2023-05-04T01:15:25.353Z,8.84
2023-05-04T01:16:27.865Z,8.83
2023-05-04T01:17:30.259Z,8.78
2023-05-04T01:18:32.501Z,8.82
2023-05-04T01:19:36.990Z,8.71
2023-05-04T01:20:39.737Z,8.71
2023-05-04T01:21:42.566Z,8.70
2023-05-04T01:22:45.134Z,8.53
2023-05-04T01:23:47.369Z,8.58
2023-05-04T01:24:50.691Z,8.45
2023-05-04T01:26:11.965Z,8.49
2023-05-04T01:27:24.535Z,8.44
2023-05-04T01:28:57.356Z,8.43
2023-05-04T01:30:05.715Z,8.40
2023-05-04T01:31:11.977Z,8.34
2023-05-04T01:32:15.466Z,8.41
2023-05-04T01:33:19.256Z,8.57
2023-05-04T01:34:22.341Z,8.66
2023-05-04T01:35:25.317Z,8.73
2023-05-04T01:36:28.151Z,8.81
2023-05-04T01:37:30.685Z,8.83
2023-05-04T01:38:32.976Z,8.84
2023-05-04T01:39:35.787Z,8.84
2023-05-04T01:40:38.007Z,8.83
2023-05-04T01:41:41.576Z,8.85
2023-05-04T01:42:44.220Z,8.90
2023-05-04T01:43:47.337Z,8.89
2023-05-04T01:44:49.917Z,8.89
2023-05-04T01:45:52.966Z,8.93
2023-05-04T01:46:55.262Z,8.90
2023-05-04T01:47:58.003Z,8.87
2023-05-04T01:49:01.104Z,8.81
2023-05-04T01:50:04.390Z,8.53
2023-05-04T01:51:06.734Z,8.59
2023-05-04T01:52:08.915Z,8.63
2023-05-04T01:53:11.533Z,8.63
2023-05-04T01:54:13.942Z,8.66
2023-05-04T01:55:16.126Z,8.73
2023-05-04T01:56:18.438Z,8.73
2023-05-04T01:57:20.827Z,8.67
2023-05-04T01:58:23.139Z,8.74
2023-05-04T01:59:25.613Z,8.72
2023-05-04T02:00:28.343Z,8.75
2023-05-04T02:01:30.658Z,8.81
2023-05-04T02:02:33.198Z,8.53
2023-05-04T02:03:35.624Z,8.21
2023-05-04T02:04:38.691Z,7.80
2023-05-04T02:05:40.930Z,7.69
2023-05-04T02:06:43.185Z,7.52
2023-05-04T02:07:45.448Z,7.40
2023-05-04T02:08:48.046Z,7.38
2023-05-04T02:09:50.294Z,7.57
2023-05-04T02:10:52.659Z,7.57
2023-05-04T02:11:55.352Z,7.62
2023-05-04T02:12:58.100Z,7.53
2023-05-04T02:14:01.171Z,7.70
2023-05-04T02:15:03.861Z,7.67
2023-05-04T02:16:06.898Z,7.61
2023-05-04T02:17:09.409Z,7.77
2023-05-04T02:18:12.701Z,7.89
2023-05-04T02:19:15.175Z,8.03
2023-05-04T02:20:18.823Z,8.10
2023-05-04T02:21:21.577Z,8.20
2023-05-04T02:22:24.272Z,8.25
2023-05-04T02:23:28.334Z,8.23
2023-05-04T02:24:30.696Z,8.28
2023-05-04T02:25:33.295Z,8.35
2023-05-04T02:26:36.554Z,8.35
2023-05-04T02:27:38.753Z,8.32
2023-05-04T02:28:41.244Z,8.31
2023-05-04T02:29:44.610Z,8.03
2023-05-04T02:30:46.971Z,7.96
2023-05-04T02:31:49.243Z,7.91
2023-05-04T02:32:51.552Z,7.97
2023-05-04T02:33:54.018Z,8.03
2023-05-04T02:34:56.251Z,8.06
2023-05-04T02:35:58.615Z,8.04
2023-05-04T02:37:01.225Z,7.91
2023-05-04T02:38:03.614Z,7.66
2023-05-04T02:39:05.846Z,7.64
2023-05-04T02:40:10.652Z,7.79
2023-05-04T02:41:13.069Z,7.69
2023-05-04T02:42:15.233Z,7.75
2023-05-04T02:43:17.668Z,7.87
2023-05-04T02:44:19.930Z,7.92
2023-05-04T02:45:22.340Z,8.03
2023-05-04T02:46:26.733Z,8.05
2023-05-04T02:47:29.147Z,7.80
2023-05-04T02:48:31.810Z,7.81
2023-05-04T02:49:34.150Z,7.87
2023-05-04T02:50:37.642Z,7.87
2023-05-04T02:51:39.866Z,7.93
2023-05-04T02:52:42.295Z,8.04
2023-05-04T02:53:44.806Z,8.09
2023-05-04T02:54:47.046Z,8.10
2023-05-04T02:55:49.676Z,8.09
2023-05-04T02:56:52.011Z,8.00
2023-05-04T02:57:54.274Z,7.91
2023-05-04T02:58:56.935Z,7.96
2023-05-04T02:59:59.155Z,8.09
2023-05-04T03:01:02.240Z,8.08
2023-05-04T03:02:04.659Z,7.86
2023-05-04T03:03:07.251Z,7.92
2023-05-04T03:04:09.755Z,7.94
2023-05-04T03:05:12.166Z,7.86
2023-05-04T03:06:14.346Z,7.80
2023-05-04T03:07:16.802Z,7.66
2023-05-04T03:08:19.428Z,7.69
2023-05-04T03:09:21.829Z,7.75
2023-05-04T03:10:24.990Z,7.82
2023-05-04T03:11:27.421Z,7.59
2023-05-04T03:12:30.077Z,7.57
2023-05-04T03:13:32.989Z,7.51
2023-05-04T03:14:35.384Z,7.49
2023-05-04T03:15:37.872Z,7.35
2023-05-04T03:16:40.326Z,7.29
2023-05-04T03:17:43.425Z,7.30
2023-05-04T03:18:58.422Z,7.28
2023-05-04T03:20:01.746Z,7.23
2023-05-04T03:21:06.228Z,7.17
2023-05-04T03:22:09.216Z,7.17
2023-05-04T03:23:11.692Z,7.17
2023-05-04T03:24:14.769Z,7.14
2023-05-04T03:25:17.448Z,7.07
2023-05-04T03:26:19.630Z,7.04
2023-05-04T03:27:21.824Z,7.07
2023-05-04T03:28:24.076Z,6.98
2023-05-04T03:29:26.619Z,6.92
2023-05-04T03:30:30.018Z,6.93
2023-05-04T03:31:35.939Z,6.91
2023-05-04T03:32:38.423Z,6.89
2023-05-04T03:33:40.646Z,6.87
2023-05-04T03:34:45.828Z,6.84
2023-05-04T03:35:48.790Z,6.87
2023-05-04T03:36:51.069Z,6.88
2023-05-04T03:37:53.569Z,6.95
2023-05-04T03:38:57.002Z,6.88
2023-05-04T03:39:59.771Z,6.81
2023-05-04T03:41:01.983Z,6.71
2023-05-04T03:42:04.636Z,6.62
2023-05-04T03:43:07.082Z,6.62
2023-05-04T03:44:09.493Z,6.51
2023-05-04T03:45:11.894Z,6.60
2023-05-04T03:46:14.131Z,6.78
2023-05-04T03:47:16.383Z,6.86
2023-05-04T03:48:18.754Z,6.90
2023-05-04T03:49:21.223Z,6.93
2023-05-04T03:50:23.918Z,7.00
2023-05-04T03:51:26.488Z,7.04
2023-05-04T03:52:28.684Z,7.15
2023-05-04T03:53:30.985Z,7.12
2023-05-04T03:54:33.438Z,7.18
2023-05-04T03:55:36.212Z,7.20
2023-05-04T03:56:38.501Z,7.15
2023-05-04T03:57:41.411Z,7.10
2023-05-04T03:58:43.828Z,7.10
2023-05-04T03:59:48.785Z,7.00
2023-05-04T04:00:51.138Z,6.97
2023-05-04T04:01:53.863Z,6.97
2023-05-04T04:02:56.450Z,6.98
2023-05-04T04:03:58.834Z,6.91
2023-05-04T04:05:01.746Z,6.87
2023-05-04T04:06:05.438Z,6.84
2023-05-04T04:07:07.653Z,6.87
2023-05-04T04:08:09.915Z,6.91
2023-05-04T04:09:12.384Z,6.95
2023-05-04T04:10:14.785Z,7.00
2023-05-04T04:11:17.062Z,6.97
2023-05-04T04:12:20.497Z,6.99
2023-05-04T04:13:22.803Z,7.04
2023-05-04T04:14:25.110Z,7.03
2023-05-04T04:15:27.524Z,7.10
2023-05-04T04:16:29.854Z,7.09
2023-05-04T04:17:32.127Z,7.08
2023-05-04T04:18:34.725Z,7.06
2023-05-04T04:19:37.061Z,7.04
2023-05-04T04:20:39.447Z,7.09
2023-05-04T04:21:42.926Z,6.99
2023-05-04T04:22:45.153Z,6.95
2023-05-04T04:23:47.782Z,6.97
2023-05-04T04:24:49.975Z,6.92
2023-05-04T04:25:54.124Z,7.00
2023-05-04T04:26:56.420Z,7.08
2023-05-04T04:27:58.588Z,7.04
2023-05-04T04:29:00.934Z,6.96
2023-05-04T04:30:06.558Z,6.96
2023-05-04T04:31:09.400Z,6.98
2023-05-04T04:32:11.690Z,7.02
2023-05-04T04:33:15.300Z,7.03
2023-05-04T04:34:17.924Z,6.96
2023-05-04T04:35:20.432Z,6.98
2023-05-04T04:36:22.723Z,7.08
2023-05-04T04:37:25.011Z,7.12
2023-05-04T04:38:27.373Z,7.15
2023-05-04T04:39:29.877Z,7.14
2023-05-04T04:40:32.847Z,6.98
2023-05-04T04:41:35.058Z,6.94
2023-05-04T04:42:37.342Z,6.92
2023-05-04T04:43:39.800Z,6.91
2023-05-04T04:44:42.292Z,7.01
2023-05-04T04:45:45.248Z,6.94
2023-05-04T04:46:48.496Z,6.97
2023-05-04T04:47:51.210Z,7.14
2023-05-04T04:48:54.349Z,7.01
2023-05-04T04:49:56.915Z,7.05
2023-05-04T04:50:59.313Z,7.16
2023-05-04T04:52:01.947Z,7.29
2023-05-04T04:53:04.393Z,7.29
2023-05-04T04:54:06.710Z,7.29
2023-05-04T04:55:09.294Z,7.24
2023-05-04T04:56:11.734Z,7.30
2023-05-04T04:57:13.922Z,7.32
2023-05-04T04:58:16.406Z,7.43
2023-05-04T04:59:18.802Z,7.24
2023-05-04T05:00:22.728Z,7.06
2023-05-04T05:01:26.245Z,7.04
2023-05-04T05:02:28.750Z,7.02
2023-05-04T05:03:31.705Z,7.18
2023-05-04T05:04:33.941Z,7.21
2023-05-04T05:05:37.133Z,7.21
2023-05-04T05:06:39.412Z,7.24
2023-05-04T05:07:42.358Z,7.31
2023-05-04T05:08:45.081Z,7.36
2023-05-04T05:09:47.413Z,7.45
2023-05-04T05:10:49.781Z,7.50
2023-05-04T05:11:52.169Z,7.63
2023-05-04T05:12:54.989Z,7.64
2023-05-04T05:13:59.797Z,7.69
2023-05-04T05:15:04.590Z,7.66
2023-05-04T05:16:06.947Z,7.65
2023-05-04T05:17:10.303Z,7.72
2023-05-04T05:18:12.549Z,7.81
2023-05-04T05:19:14.765Z,7.86
2023-05-04T05:20:17.148Z,7.93
2023-05-04T05:21:19.351Z,8.03
2023-05-04T05:22:22.209Z,8.06
2023-05-04T05:23:24.458Z,8.06
2023-05-04T05:24:26.930Z,8.15
2023-05-04T05:25:30.140Z,8.21
2023-05-04T05:26:32.836Z,8.14
2023-05-04T05:27:35.349Z,8.08
2023-05-04T05:28:37.988Z,8.11
2023-05-04T05:29:40.845Z,8.24
2023-05-04T05:30:43.347Z,8.21
2023-05-04T05:31:45.531Z,8.31
2023-05-04T05:32:49.358Z,8.33
2023-05-04T05:33:51.864Z,8.44
2023-05-04T05:34:54.264Z,8.50
2023-05-04T05:35:56.974Z,8.49
2023-05-04T05:36:59.319Z,8.56
2023-05-04T05:38:02.212Z,8.67
2023-05-04T05:39:04.448Z,8.72
2023-05-04T05:40:10.139Z,8.75
2023-05-04T05:41:12.849Z,8.75
2023-05-04T05:42:15.147Z,8.81
2023-05-04T05:43:18.222Z,9.02
2023-05-04T05:44:20.526Z,9.13
2023-05-04T05:45:23.947Z,9.21
2023-05-04T05:46:28.090Z,9.27
2023-05-04T05:47:31.239Z,9.41
2023-05-04T05:48:33.918Z,9.50
2023-05-04T05:49:36.148Z,9.48
2023-05-04T05:50:38.374Z,9.46
2023-05-04T05:51:41.772Z,9.43
2023-05-04T05:52:44.080Z,9.61
2023-05-04T05:53:46.680Z,9.75
2023-05-04T05:54:49.143Z,9.85
2023-05-04T05:55:51.328Z,10.01
2023-05-04T05:56:53.510Z,10.25
2023-05-04T05:57:55.780Z,10.52
2023-05-04T05:58:58.681Z,11.12
2023-05-04T06:00:00.984Z,11.57
2023-05-04T06:01:14.826Z,12.25
2023-05-04T06:02:17.099Z,12.79
2023-05-04T06:03:19.442Z,13.26
2023-05-04T06:04:22.099Z,13.89
2023-05-04T06:05:24.370Z,14.25
2023-05-04T06:06:26.873Z,14.20
2023-05-04T06:07:29.067Z,13.98
2023-05-04T06:08:31.800Z,14.54
2023-05-04T06:09:34.947Z,15.13
2023-05-04T06:10:37.123Z,15.53
2023-05-04T06:11:39.486Z,15.76
2023-05-04T06:12:41.734Z,15.97
2023-05-04T06:13:44.147Z,15.72
2023-05-04T06:14:47.969Z,15.77
2023-05-04T06:15:55.572Z,15.54
2023-05-04T06:16:58.237Z,15.21
2023-05-04T06:18:00.783Z,15.80
2023-05-04T06:19:03.294Z,16.35
2023-05-04T06:20:07.380Z,16.48
2023-05-04T06:21:10.183Z,16.74
2023-05-04T06:22:12.384Z,16.96
2023-05-04T06:23:17.610Z,17.24
2023-05-04T06:24:21.682Z,17.30
2023-05-04T06:25:24.277Z,17.15
2023-05-04T06:26:26.687Z,17.37
2023-05-04T06:27:31.633Z,17.38
2023-05-04T06:28:34.954Z,17.71
2023-05-04T06:29:40.262Z,17.78
2023-05-04T06:30:42.828Z,17.55
2023-05-04T06:31:48.101Z,17.84
2023-05-04T06:32:51.303Z,18.12
2023-05-04T06:33:53.896Z,18.08
2023-05-04T06:34:56.238Z,18.33
2023-05-04T06:35:58.757Z,18.74
2023-05-04T06:37:00.942Z,19.03
2023-05-04T06:38:03.551Z,18.86
2023-05-04T06:39:05.962Z,18.61
2023-05-04T06:40:09.186Z,19.15
2023-05-04T06:41:11.790Z,19.48
2023-05-04T06:42:14.148Z,19.55
2023-05-04T06:43:17.551Z,18.56
2023-05-04T06:44:19.747Z,18.56
2023-05-04T06:45:22.188Z,19.16
2023-05-04T06:46:24.615Z,19.26
2023-05-04T06:47:26.885Z,19.53
2023-05-04T06:48:29.911Z,20.00
2023-05-04T06:49:32.644Z,20.37
2023-05-04T06:50:36.145Z,20.12
2023-05-04T06:51:39.212Z,20.54
2023-05-04T06:52:44.242Z,20.63
2023-05-04T06:53:46.778Z,20.57
2023-05-04T06:54:49.006Z,20.86
2023-05-04T06:55:51.605Z,21.12
2023-05-04T06:56:53.967Z,21.03
2023-05-04T06:57:56.514Z,21.27
2023-05-04T06:58:58.817Z,21.35
2023-05-04T07:00:01.489Z,21.60
2023-05-04T07:01:09.368Z,21.34
2023-05-04T07:02:12.090Z,20.81
2023-05-04T07:03:14.598Z,20.96
2023-05-04T07:04:17.134Z,21.07
2023-05-04T07:05:20.806Z,21.29
2023-05-04T07:06:26.597Z,21.18
2023-05-04T07:07:28.845Z,21.32
2023-05-04T07:08:31.425Z,21.27
2023-05-04T07:09:33.989Z,20.77
2023-05-04T07:10:36.419Z,20.83
2023-05-04T07:11:38.803Z,20.95
2023-05-04T07:12:41.783Z,21.52
2023-05-04T07:13:44.093Z,21.81
2023-05-04T07:14:46.328Z,21.81
2023-05-04T07:15:48.712Z,22.12
2023-05-04T07:16:51.113Z,21.84
2023-05-04T07:17:53.643Z,22.03
2023-05-04T07:18:58.710Z,22.40
2023-05-04T07:20:03.863Z,22.31
2023-05-04T07:21:27.490Z,22.23
2023-05-04T07:22:32.740Z,22.34
2023-05-04T07:23:36.095Z,22.06
2023-05-04T07:24:40.887Z,21.88
2023-05-04T07:25:44.888Z,22.01
2023-05-04T07:26:47.100Z,22.40
2023-05-04T07:27:49.713Z,22.82
2023-05-04T07:28:52.058Z,22.46
2023-05-04T07:29:55.143Z,22.66
2023-05-04T07:30:58.159Z,22.34
2023-05-04T07:32:00.387Z,22.30
2023-05-04T07:33:02.938Z,22.32
2023-05-04T07:34:05.635Z,22.61
2023-05-04T07:35:08.699Z,22.63
2023-05-04T07:36:11.064Z,22.20
2023-05-04T07:37:13.823Z,22.23
2023-05-04T07:38:16.047Z,22.47
2023-05-04T07:39:19.636Z,23.04
2023-05-04T07:40:22.182Z,23.40
2023-05-04T07:41:24.466Z,23.71
2023-05-04T07:42:28.030Z,23.70
2023-05-04T07:43:30.254Z,23.66
2023-05-04T07:44:32.534Z,22.34
2023-05-04T07:45:35.127Z,22.25
2023-05-04T07:46:38.776Z,21.97
2023-05-04T07:47:41.631Z,22.02
2023-05-04T07:48:43.939Z,22.11
2023-05-04T07:49:46.601Z,21.51
2023-05-04T07:50:49.377Z,21.52
2023-05-04T07:51:52.100Z,21.32
2023-05-04T07:52:54.492Z,21.96
2023-05-04T07:53:56.933Z,22.04
2023-05-04T07:54:59.182Z,22.58
2023-05-04T07:56:08.649Z,22.77
2023-05-04T07:57:11.385Z,22.63
2023-05-04T07:58:16.652Z,23.11
2023-05-04T07:59:19.153Z,23.60
2023-05-04T08:00:21.784Z,23.57
2023-05-04T08:01:24.732Z,23.73
2023-05-04T08:02:27.297Z,24.07
2023-05-04T08:03:30.756Z,24.28
2023-05-04T08:04:33.168Z,24.35
2023-05-04T08:05:35.639Z,24.38
2023-05-04T08:06:41.747Z,24.35
2023-05-04T08:07:44.341Z,22.84
2023-05-04T08:08:51.429Z,22.85
2023-05-04T08:09:57.045Z,22.64
2023-05-04T08:11:11.740Z,22.11
2023-05-04T08:12:18.618Z,22.37
2023-05-04T08:13:20.889Z,22.46
2023-05-04T08:14:23.335Z,22.94
2023-05-04T08:15:25.884Z,23.31
2023-05-04T08:16:29.372Z,23.44
2023-05-04T08:17:32.358Z,23.43
2023-05-04T08:18:34.705Z,23.11
2023-05-04T08:19:37.003Z,23.62
2023-05-04T08:20:39.573Z,23.76
2023-05-04T08:21:42.201Z,23.88
2023-05-04T08:22:44.449Z,23.33
2023-05-04T08:23:46.908Z,23.00
2023-05-04T08:24:49.152Z,22.14
2023-05-04T08:25:52.452Z,22.66
2023-05-04T08:27:07.209Z,22.82
2023-05-04T08:28:11.102Z,22.18
2023-05-04T08:29:13.345Z,22.61
2023-05-04T08:30:16.888Z,23.21
2023-05-04T08:31:19.312Z,23.59
2023-05-04T08:32:22.624Z,22.31
2023-05-04T08:33:24.902Z,22.42
2023-05-04T08:34:27.156Z,22.42
2023-05-04T08:35:29.593Z,22.68
2023-05-04T08:36:32.163Z,23.18
2023-05-04T08:37:34.931Z,22.52
2023-05-04T08:38:37.397Z,22.62
2023-05-04T08:39:41.826Z,22.79
2023-05-04T08:40:44.564Z,22.89
2023-05-04T08:41:46.817Z,22.80
2023-05-04T08:42:50.627Z,23.04
2023-05-04T08:43:53.259Z,22.93
2023-05-04T08:44:59.484Z,22.86
2023-05-04T08:46:03.358Z,22.06
2023-05-04T08:47:05.881Z,22.26
2023-05-04T08:48:08.884Z,22.56
2023-05-04T08:49:11.918Z,22.87
2023-05-04T08:50:17.154Z,22.99
2023-05-04T08:51:23.589Z,23.45
2023-05-04T08:52:26.605Z,23.10
2023-05-04T08:53:31.290Z,23.03
2023-05-04T08:54:35.439Z,22.93
2023-05-04T08:55:39.511Z,22.91
2023-05-04T08:56:42.852Z,22.94
2023-05-04T08:57:45.776Z,23.20
2023-05-04T08:58:50.981Z,23.30
2023-05-04T08:59:55.306Z,23.35
2023-05-04T09:00:59.481Z,22.69
2023-05-04T09:02:04.150Z,22.91
2023-05-04T09:03:07.644Z,22.05
2023-05-04T09:04:11.177Z,21.73
2023-05-04T09:05:13.923Z,22.14
2023-05-04T09:06:16.421Z,22.29
2023-05-04T09:07:20.465Z,21.94
2023-05-04T09:08:22.846Z,21.85
2023-05-04T09:09:28.596Z,22.44
2023-05-04T09:10:31.378Z,22.82
2023-05-04T09:11:33.725Z,22.84
2023-05-04T09:12:37.986Z,22.89
2023-05-04T09:13:42.588Z,22.94
2023-05-04T09:14:46.501Z,22.91
2023-05-04T09:15:58.985Z,22.76
2023-05-04T09:17:02.496Z,22.30
2023-05-04T09:18:06.336Z,22.38
2023-05-04T09:19:21.150Z,22.79
2023-05-04T09:20:23.683Z,22.78
2023-05-04T09:21:30.590Z,22.44
2023-05-04T09:22:33.965Z,22.58
2023-05-04T09:23:46.705Z,22.64
2023-05-04T09:24:49.137Z,21.89
2023-05-04T09:25:53.741Z,20.95
2023-05-04T09:26:56.235Z,21.22
2023-05-04T09:27:58.505Z,20.76
2023-05-04T09:29:15.177Z,19.73
2023-05-04T09:30:21.199Z,19.95
2023-05-04T09:31:24.361Z,19.96
2023-05-04T09:32:26.778Z,20.14
2023-05-04T09:33:29.307Z,20.27
2023-05-04T09:34:33.552Z,20.10
2023-05-04T09:35:41.919Z,19.78
2023-05-04T09:36:44.378Z,19.77
2023-05-04T09:37:47.294Z,19.89
2023-05-04T09:38:49.592Z,20.41
2023-05-04T09:39:57.819Z,20.47
2023-05-04T09:41:00.034Z,19.92
2023-05-04T09:42:02.727Z,20.08
2023-05-04T09:43:06.876Z,20.43
2023-05-04T09:44:22.492Z,20.92
2023-05-04T09:45:24.759Z,21.05
2023-05-04T09:46:27.263Z,21.46
2023-05-04T09:47:40.196Z,20.89
2023-05-04T09:48:51.848Z,20.66
2023-05-04T09:49:54.153Z,20.64
2023-05-04T09:50:58.508Z,20.55
2023-05-04T09:52:02.862Z,20.83
2023-05-04T09:53:07.336Z,20.79
2023-05-04T09:54:10.486Z,20.44
2023-05-04T09:55:15.209Z,20.37
2023-05-04T09:56:28.503Z,20.65
2023-05-04T09:57:31.263Z,20.92
2023-05-04T09:58:34.262Z,20.79
2023-05-04T09:59:37.018Z,20.37
2023-05-04T10:00:39.661Z,20.23
2023-05-04T10:01:44.690Z,20.00
2023-05-04T10:02:48.210Z,20.00
2023-05-04T10:03:52.646Z,19.89
2023-05-04T10:04:58.894Z,20.14
2023-05-04T10:06:04.636Z,20.05
2023-05-04T10:07:07.142Z,19.96
2023-05-04T10:08:09.718Z,19.60
2023-05-04T10:09:13.158Z,19.81
2023-05-04T10:10:15.629Z,19.86
2023-05-04T10:11:19.295Z,19.68
2023-05-04T10:12:21.504Z,20.13
2023-05-04T10:13:24.715Z,20.03
2023-05-04T10:14:31.345Z,19.58
2023-05-04T10:15:34.195Z,19.58
2023-05-04T10:16:45.127Z,19.58
2023-05-04T10:17:57.639Z,19.73
2023-05-04T10:19:33.873Z,19.96
2023-05-04T10:20:48.302Z,19.49
2023-05-04T10:22:08.832Z,19.83
2023-05-04T10:23:46.816Z,20.00
2023-05-04T10:25:19.195Z,19.68
2023-05-04T10:26:59.559Z,19.43
2023-05-04T10:28:31.091Z,18.58
2023-05-04T10:29:34.921Z,18.66
2023-05-04T10:30:40.155Z,18.55
2023-05-04T10:31:43.987Z,18.66
2023-05-04T10:32:46.495Z,18.56
2023-05-04T10:33:48.955Z,18.80
2023-05-04T10:34:52.382Z,18.55
2023-05-04T10:35:55.388Z,18.70
2023-05-04T10:36:59.289Z,19.08
2023-05-04T10:38:01.593Z,19.17
2023-05-04T10:39:05.336Z,19.41
2023-05-04T10:40:08.562Z,19.61
2023-05-04T10:41:21.667Z,19.27
2023-05-04T10:42:24.336Z,19.09
2023-05-04T10:43:29.123Z,18.82
2023-05-04T10:44:33.833Z,18.79
2023-05-04T10:45:37.676Z,18.76
2023-05-04T10:46:39.985Z,18.48
2023-05-04T10:47:42.275Z,18.52
2023-05-04T10:48:44.613Z,18.86
2023-05-04T10:49:47.055Z,19.11
2023-05-04T10:50:50.616Z,19.29
2023-05-04T10:52:13.625Z,19.43
2023-05-04T10:53:17.808Z,19.60
2023-05-04T10:54:20.105Z,19.72
2023-05-04T10:55:22.665Z,19.90
2023-05-04T10:56:28.665Z,19.91
2023-05-04T10:57:31.411Z,19.69
2023-05-04T10:58:33.832Z,19.20
2023-05-04T10:59:37.265Z,18.88
2023-05-04T11:00:45.819Z,19.02
2023-05-04T11:01:48.784Z,19.33
2023-05-04T11:02:51.108Z,19.64
2023-05-04T11:03:54.036Z,19.75
2023-05-04T11:05:05.934Z,19.82
2023-05-04T11:06:24.390Z,19.94
2023-05-04T11:07:37.958Z,19.59
2023-05-04T11:08:40.557Z,19.74
2023-05-04T11:09:44.402Z,19.75
2023-05-04T11:10:48.124Z,19.83
2023-05-04T11:11:50.821Z,19.93
2023-05-04T11:12:55.900Z,20.21
2023-05-04T11:13:59.010Z,20.18
2023-05-04T11:15:10.891Z,20.04
2023-05-04T11:16:26.749Z,20.17
2023-05-04T11:17:29.168Z,20.39
2023-05-04T11:18:35.398Z,20.53
2023-05-04T11:19:51.237Z,20.36
2023-05-04T11:20:54.690Z,20.26
2023-05-04T11:21:56.945Z,20.34
2023-05-04T11:22:59.121Z,19.72
2023-05-04T11:24:02.685Z,19.46
2023-05-04T11:25:05.542Z,19.44
2023-05-04T11:26:12.333Z,19.49
2023-05-04T11:27:31.034Z,19.64
2023-05-04T11:28:34.851Z,19.74
2023-05-04T11:29:37.574Z,20.07
2023-05-04T11:30:42.485Z,20.34
2023-05-04T11:31:54.751Z,20.55
2023-05-04T11:32:59.296Z,20.57
2023-05-04T11:34:01.557Z,20.68
2023-05-04T11:35:07.436Z,20.66
2023-05-04T11:36:11.205Z,20.73
2023-05-04T11:37:13.917Z,20.82
2023-05-04T11:38:20.237Z,20.72
2023-05-04T11:39:22.510Z,20.20
2023-05-04T11:40:26.901Z,20.01
2023-05-04T11:41:29.943Z,20.15
2023-05-04T11:42:32.861Z,20.43
2023-05-04T11:43:37.366Z,20.53
2023-05-04T11:44:40.746Z,20.49
2023-05-04T11:45:43.591Z,19.78
2023-05-04T11:46:48.369Z,19.46
2023-05-04T11:47:52.439Z,19.94
2023-05-04T11:48:54.853Z,20.24
2023-05-04T11:49:57.168Z,20.37
2023-05-04T11:50:59.647Z,20.65
2023-05-04T11:52:09.080Z,20.78
2023-05-04T11:53:13.588Z,20.29
2023-05-04T11:54:22.274Z,20.01
2023-05-04T11:55:30.550Z,20.16
2023-05-04T11:56:41.620Z,20.45
2023-05-04T11:57:44.086Z,20.55
2023-05-04T11:58:46.519Z,20.66
2023-05-04T11:59:49.389Z,20.93
2023-05-04T12:00:56.738Z,21.07
2023-05-04T12:02:00.217Z,21.19
2023-05-04T12:03:03.226Z,21.25
2023-05-04T12:04:06.556Z,21.06
2023-05-04T12:05:13.981Z,20.92
2023-05-04T12:06:16.598Z,21.11
2023-05-04T12:07:18.857Z,21.34
2023-05-04T12:08:26.188Z,21.38
2023-05-04T12:09:28.584Z,21.41
2023-05-04T12:10:33.505Z,21.38
2023-05-04T12:11:38.251Z,21.39
2023-05-04T12:12:40.818Z,21.01
2023-05-04T12:13:45.109Z,20.94
2023-05-04T12:14:58.294Z,21.12
2023-05-04T12:16:18.189Z,20.89
2023-05-04T12:17:21.398Z,20.40
2023-05-04T12:18:29.367Z,20.02
2023-05-04T12:19:31.885Z,20.12
2023-05-04T12:20:34.766Z,20.15
2023-05-04T12:21:37.185Z,20.46
2023-05-04T12:22:39.755Z,20.32
2023-05-04T12:23:42.595Z,20.38
2023-05-04T12:24:45.044Z,20.16
2023-05-04T12:25:57.256Z,20.42
2023-05-04T12:27:00.715Z,20.22
2023-05-04T12:28:03.530Z,19.89
2023-05-04T12:29:05.936Z,19.78
2023-05-04T12:30:09.015Z,20.10
2023-05-04T12:31:11.264Z,20.48
2023-05-04T12:32:13.596Z,20.33
2023-05-04T12:33:15.910Z,20.39
2023-05-04T12:34:18.278Z,20.36
2023-05-04T12:35:20.705Z,20.47
2023-05-04T12:36:23.184Z,20.80
2023-05-04T12:37:25.459Z,20.79
2023-05-04T12:38:28.585Z,20.80
2023-05-04T12:39:32.646Z,20.86
2023-05-04T12:40:35.242Z,20.80
2023-05-04T12:41:37.593Z,20.68
2023-05-04T12:42:42.273Z,20.76
2023-05-04T12:43:44.646Z,20.54
2023-05-04T12:44:47.173Z,20.61
2023-05-04T12:45:51.006Z,20.61
2023-05-04T12:46:55.313Z,20.80
2023-05-04T12:47:57.625Z,20.71
2023-05-04T12:49:00.101Z,20.56
2023-05-04T12:50:05.185Z,20.84
2023-05-04T12:51:07.428Z,20.83
2023-05-04T12:52:10.249Z,20.77
2023-05-04T12:53:12.883Z,20.85
2023-05-04T12:54:15.533Z,20.95
2023-05-04T12:55:18.776Z,20.90
2023-05-04T12:56:21.513Z,21.01
2023-05-04T12:57:24.512Z,21.16
2023-05-04T12:58:27.569Z,21.35
2023-05-04T12:59:29.947Z,21.52
2023-05-04T13:00:36.166Z,21.68
2023-05-04T13:01:40.268Z,21.93
2023-05-04T13:02:42.919Z,21.73
2023-05-04T13:03:45.370Z,21.56
2023-05-04T13:04:47.801Z,21.56
2023-05-04T13:05:50.307Z,21.74
2023-05-04T13:06:52.498Z,21.86
2023-05-04T13:07:55.559Z,21.67
2023-05-04T13:08:58.212Z,21.83
2023-05-04T13:10:01.457Z,21.86
2023-05-04T13:11:03.779Z,22.03
2023-05-04T13:12:06.223Z,21.80
2023-05-04T13:13:08.687Z,21.77
2023-05-04T13:14:11.157Z,21.90
2023-05-04T13:15:13.928Z,22.00
2023-05-04T13:16:17.025Z,22.21
2023-05-04T13:17:20.378Z,22.22
2023-05-04T13:18:27.118Z,22.31
2023-05-04T13:19:29.465Z,22.21
2023-05-04T13:20:32.056Z,21.88
2023-05-04T13:21:34.589Z,21.98
2023-05-04T13:22:37.059Z,21.75
2023-05-04T13:23:39.329Z,21.85
2023-05-04T13:24:41.548Z,21.65
2023-05-04T13:25:43.735Z,21.84
2023-05-04T13:26:46.823Z,21.64
2023-05-04T13:27:49.187Z,21.72
2023-05-04T13:28:51.730Z,21.71
2023-05-04T13:29:53.952Z,21.60
2023-05-04T13:30:56.242Z,21.73
2023-05-04T13:31:59.666Z,21.96
2023-05-04T13:33:07.592Z,22.08
2023-05-04T13:34:15.916Z,22.22
2023-05-04T13:35:18.310Z,22.37
2023-05-04T13:36:20.533Z,22.25
2023-05-04T13:37:23.626Z,22.25
2023-05-04T13:38:26.319Z,22.27
2023-05-04T13:39:28.674Z,22.26
2023-05-04T13:40:30.893Z,21.75
2023-05-04T13:41:34.485Z,21.76
2023-05-04T13:42:37.544Z,21.57
2023-05-04T13:43:40.111Z,21.67
2023-05-04T13:44:45.078Z,21.67
2023-05-04T13:45:48.232Z,21.65
2023-05-04T13:46:50.698Z,21.79
2023-05-04T13:47:53.873Z,21.66
2023-05-04T13:48:57.179Z,21.83
2023-05-04T13:49:59.715Z,21.87
2023-05-04T13:51:03.881Z,21.85
2023-05-04T13:52:06.559Z,21.59
2023-05-04T13:53:11.344Z,21.03
2023-05-04T13:54:13.542Z,20.91
2023-05-04T13:55:16.904Z,20.73
2023-05-04T13:56:19.290Z,21.06